Time;durP1;ratioP1;P1;durP2;ratioP2;P2;SDS_P1;SDS_P2;PMS_P1;PMS_P2;Temp;Humidity;BMP_temperature;BMP_pressure;BME280_temperature;BME280_humidity;BME280_pressure;Samples;Min_cycle;Max_cycle;Signal;HPM_P1;HPM_P2
2024/03/11 00:02:11;;;;;;;1.45;1.13;;;;;;;;;;4959956;28;20176;-80
2024/03/11 00:04:39;;;;;;;1.20;1.10;;;;;;;;;;4978782;28;20055;-79
2024/03/11 00:07:08;;;;;;;2.00;1.10;;;;;;;;;;4958716;28;20057;-80
2024/03/11 00:09:41;;;;;;;1.35;1.17;;;;;;;;;;4963245;28;20054;-80
2024/03/11 00:12:09;;;;;;;1.45;1.17;;;;;;;;;;4978392;28;20058;-80
2024/03/11 00:14:39;;;;;;;1.80;1.20;;;;;;;;;;4978386;28;20058;-80
2024/03/11 00:17:06;;;;;;;1.42;1.33;;;;;;;;;;4978625;28;20563;-80
2024/03/11 00:19:32;;;;;;;1.60;0.85;;;;;;;;;;4963425;28;20054;-80
2024/03/11 00:21:59;;;;;;;1.00;1.00;;;;;;;;;;4963094;28;20058;-80
2024/03/11 00:24:26;;;;;;;1.95;1.30;;;;;;;;;;4977743;28;20065;-79
2024/03/11 00:26:53;;;;;;;1.23;1.10;;;;;;;;;;4974800;28;20097;-79
2024/03/11 00:29:19;;;;;;;1.85;1.30;;;;;;;;;;4959949;28;20057;-80
2024/03/11 00:31:46;;;;;;;1.17;1.08;;;;;;;;;;4985145;28;20141;-80
2024/03/11 00:34:17;;;;;;;1.50;1.30;;;;;;;;;;4978542;28;20050;-80
2024/03/11 00:36:48;;;;;;;0.98;0.88;;;;;;;;;;4976461;28;20123;-80
2024/03/11 00:39:15;;;;;;;1.48;1.25;;;;;;;;;;4977809;28;20125;-81
2024/03/11 00:41:42;;;;;;;1.35;1.00;;;;;;;;;;4977988;28;20062;-81
2024/03/11 00:44:09;;;;;;;1.35;1.08;;;;;;;;;;4977882;28;20065;-80
2024/03/11 00:46:35;;;;;;;1.20;1.10;;;;;;;;;;4976561;28;20050;-80
2024/03/11 00:49:02;;;;;;;2.00;1.40;;;;;;;;;;4977124;28;20410;-81
2024/03/11 00:51:35;;;;;;;3.03;1.35;;;;;;;;;;4961903;28;20051;-80
2024/03/11 00:54:01;;;;;;;1.42;1.27;;;;;;;;;;4961343;28;20058;-81
2024/03/11 00:56:28;;;;;;;1.55;1.42;;;;;;;;;;4956584;28;20459;-82
2024/03/11 00:58:55;;;;;;;2.25;1.15;;;;;;;;;;4986621;28;20085;-83
2024/03/11 01:01:21;;;;;;;2.00;1.10;;;;;;;;;;4977232;28;20137;-83
2024/03/11 01:03:48;;;;;;;1.60;1.48;;;;;;;;;;4960152;28;20089;-83
2024/03/11 01:06:15;;;;;;;1.42;1.33;;;;;;;;;;4962019;28;20480;-81
2024/03/11 01:08:42;;;;;;;2.13;1.55;;;;;;;;;;4979232;28;20054;-81
2024/03/11 01:11:10;;;;;;;1.70;1.60;;;;;;;;;;4963146;28;20057;-81
2024/03/11 01:13:37;;;;;;;1.30;1.20;;;;;;;;;;4978795;28;20054;-81
2024/03/11 01:16:04;;;;;;;1.95;1.42;;;;;;;;;;4957872;28;20540;-81
2024/03/11 01:18:30;;;;;;;1.60;1.35;;;;;;;;;;4963365;28;20086;-81
2024/03/11 01:20:57;;;;;;;1.50;1.23;;;;;;;;;;4978186;28;20456;-83
2024/03/11 01:23:24;;;;;;;1.30;1.20;;;;;;;;;;4980467;28;20085;-80
2024/03/11 01:25:51;;;;;;;1.67;1.42;;;;;;;;;;4975971;28;20055;-80
2024/03/11 01:28:17;;;;;;;1.50;1.40;;;;;;;;;;4980908;28;20654;-80
2024/03/11 01:30:44;;;;;;;3.17;1.50;;;;;;;;;;4983423;28;20051;-81
2024/03/11 01:33:11;;;;;;;1.88;1.50;;;;;;;;;;4977388;28;20058;-83
2024/03/11 01:35:40;;;;;;;1.67;1.25;;;;;;;;;;4974220;28;20105;-80
2024/03/11 01:38:10;;;;;;;2.30;1.45;;;;;;;;;;4961186;28;20146;-80
2024/03/11 01:40:37;;;;;;;1.98;1.30;;;;;;;;;;4976882;28;20094;-80
2024/03/11 01:43:04;;;;;;;1.73;1.40;;;;;;;;;;4976701;28;20185;-81
2024/03/11 01:45:32;;;;;;;1.98;1.17;;;;;;;;;;4972485;28;20072;-81
2024/03/11 01:47:59;;;;;;;2.17;1.55;;;;;;;;;;4968599;28;20559;-81
2024/03/11 01:50:26;;;;;;;2.78;1.40;;;;;;;;;;4976825;28;20058;-81
2024/03/11 01:52:56;;;;;;;1.40;1.10;;;;;;;;;;4975902;28;20105;-81
2024/03/11 01:55:25;;;;;;;1.67;1.58;;;;;;;;;;4958213;28;20062;-81
2024/03/11 01:57:52;;;;;;;1.70;1.50;;;;;;;;;;4961199;28;20484;-81
2024/03/11 02:00:21;;;;;;;1.58;1.48;;;;;;;;;;4977764;28;20074;-81
2024/03/11 02:06:17;;;;;;;1.48;1.38;;;;;;;;;;4973067;28;20029;-80
2024/03/11 02:08:44;;;;;;;1.33;1.20;;;;;;;;;;4977040;28;20058;-79
2024/03/11 02:11:11;;;;;;;2.08;1.48;;;;;;;;;;4996201;28;20050;-79
2024/03/11 02:13:37;;;;;;;1.77;1.45;;;;;;;;;;4996404;28;20122;-79
2024/03/11 02:16:04;;;;;;;2.42;1.60;;;;;;;;;;4994292;28;20196;-79
2024/03/11 02:18:34;;;;;;;1.75;1.42;;;;;;;;;;4995035;28;20457;-82
2024/03/11 02:21:02;;;;;;;3.10;1.48;;;;;;;;;;4986297;28;20050;-83
2024/03/11 02:23:30;;;;;;;1.98;1.30;;;;;;;;;;4996286;28;20468;-83
2024/03/11 02:25:57;;;;;;;2.28;1.33;;;;;;;;;;4996178;28;20054;-83
2024/03/11 02:28:23;;;;;;;1.92;1.35;;;;;;;;;;4996433;28;20124;-79
2024/03/11 02:30:50;;;;;;;1.13;1.02;;;;;;;;;;4995579;28;20058;-81
2024/03/11 02:33:17;;;;;;;1.33;1.10;;;;;;;;;;4995174;28;20050;-81
2024/03/11 02:35:43;;;;;;;2.47;1.30;;;;;;;;;;4995120;28;20532;-82
2024/03/11 02:38:10;;;;;;;1.95;1.48;;;;;;;;;;4980464;28;20046;-82
2024/03/11 02:40:39;;;;;;;1.20;1.10;;;;;;;;;;4996347;28;20496;-83
2024/03/11 02:43:06;;;;;;;1.30;1.20;;;;;;;;;;4996771;28;20058;-83
2024/03/11 02:45:34;;;;;;;1.35;1.25;;;;;;;;;;4998049;28;20112;-82
2024/03/11 02:48:01;;;;;;;1.55;1.45;;;;;;;;;;4981852;28;20061;-81
2024/03/11 02:50:28;;;;;;;1.27;1.17;;;;;;;;;;4991157;28;20125;-81
2024/03/11 02:52:56;;;;;;;3.60;1.10;;;;;;;;;;4979750;28;20062;-81
2024/03/11 02:55:23;;;;;;;1.17;1.08;;;;;;;;;;4999884;28;20058;-81
2024/03/11 02:57:51;;;;;;;1.15;1.00;;;;;;;;;;4993099;28;20054;-80
2024/03/11 03:00:18;;;;;;;1.92;1.17;;;;;;;;;;4999991;28;20081;-79
2024/03/11 03:02:45;;;;;;;1.30;1.00;;;;;;;;;;4999825;28;20073;-81
2024/03/11 03:05:12;;;;;;;4.65;1.80;;;;;;;;;;5000672;28;20090;-81
2024/03/11 03:07:39;;;;;;;1.20;1.10;;;;;;;;;;4987144;28;20050;-81
2024/03/11 03:10:06;;;;;;;1.45;1.20;;;;;;;;;;5000519;28;20105;-81
2024/03/11 03:12:33;;;;;;;0.95;0.88;;;;;;;;;;4999944;28;20069;-80
2024/03/11 03:15:00;;;;;;;1.20;1.10;;;;;;;;;;5000618;28;20058;-81
2024/03/11 03:17:27;;;;;;;1.10;1.00;;;;;;;;;;5000705;28;20073;-81
2024/03/11 03:19:55;;;;;;;1.48;1.00;;;;;;;;;;4988834;28;20132;-81
2024/03/11 03:22:21;;;;;;;1.05;0.95;;;;;;;;;;4999329;28;20065;-81
2024/03/11 03:24:49;;;;;;;1.35;1.25;;;;;;;;;;5000067;28;20093;-81
2024/03/11 03:27:16;;;;;;;1.40;0.95;;;;;;;;;;4998955;28;20061;-81
2024/03/11 03:29:44;;;;;;;3.00;0.95;;;;;;;;;;4999394;28;20085;-81
2024/03/11 03:32:12;;;;;;;2.08;1.15;;;;;;;;;;4993423;28;20053;-81
2024/03/11 03:34:39;;;;;;;1.65;1.13;;;;;;;;;;4998459;28;20050;-81
2024/03/11 03:37:05;;;;;;;2.10;1.20;;;;;;;;;;4998380;28;20050;-81
2024/03/11 03:39:33;;;;;;;1.88;1.15;;;;;;;;;;4998572;28;20150;-81
2024/03/11 03:42:00;;;;;;;1.92;1.15;;;;;;;;;;4998500;28;20054;-82
2024/03/11 03:44:27;;;;;;;1.42;1.10;;;;;;;;;;4995286;28;20050;-82
2024/03/11 03:46:55;;;;;;;1.33;0.93;;;;;;;;;;4998555;28;20062;-80
2024/03/11 03:49:21;;;;;;;1.25;0.98;;;;;;;;;;5001861;28;20058;-80
2024/03/11 03:51:48;;;;;;;1.73;0.90;;;;;;;;;;5000712;28;20086;-80
2024/03/11 03:54:17;;;;;;;1.27;1.02;;;;;;;;;;4995860;28;20058;-84
2024/03/11 03:56:45;;;;;;;3.28;1.00;;;;;;;;;;4999645;28;20054;-83
2024/03/11 03:59:12;;;;;;;3.28;1.00;;;;;;;;;;4999695;28;20046;-83
2024/03/11 04:01:38;;;;;;;1.65;0.80;;;;;;;;;;4999214;28;20054;-82
2024/03/11 04:04:05;;;;;;;2.92;1.25;;;;;;;;;;5024915;28;20082;-82
2024/03/11 04:06:32;;;;;;;2.22;1.23;;;;;;;;;;5025702;28;20054;-82
2024/03/11 04:08:59;;;;;;;4.10;1.33;;;;;;;;;;4995108;28;20047;-83
2024/03/11 04:11:26;;;;;;;2.08;1.25;;;;;;;;;;4995552;28;20066;-79
2024/03/11 04:13:53;;;;;;;2.30;1.75;;;;;;;;;;4971150;28;20494;-80
2024/03/11 04:16:20;;;;;;;4.05;1.48;;;;;;;;;;4960485;28;20046;-78
2024/03/11 04:18:48;;;;;;;8.43;2.65;;;;;;;;;;4986130;28;20109;-77
2024/03/11 04:21:16;;;;;;;9.30;3.03;;;;;;;;;;4978581;28;20074;-79
2024/03/11 04:23:44;;;;;;;13.00;4.75;;;;;;;;;;4981047;28;20078;-79
2024/03/11 04:26:11;;;;;;;18.27;6.35;;;;;;;;;;4966076;28;20050;-80
2024/03/11 04:28:38;;;;;;;28.95;10.00;;;;;;;;;;4984191;28;20160;-80
2024/03/11 04:31:04;;;;;;;34.17;13.73;;;;;;;;;;4965308;28;20063;-79
2024/03/11 04:33:31;;;;;;;39.40;15.95;;;;;;;;;;4951234;28;20051;-79
2024/03/11 04:35:58;;;;;;;38.42;18.83;;;;;;;;;;4955537;28;20093;-79
2024/03/11 04:38:26;;;;;;;36.55;19.17;;;;;;;;;;4959169;28;20047;-80
2024/03/11 04:40:53;;;;;;;34.45;18.83;;;;;;;;;;4992487;28;20101;-79
2024/03/11 04:43:20;;;;;;;32.78;18.80;;;;;;;;;;4962513;28;20058;-79
2024/03/11 04:45:47;;;;;;;27.58;16.92;;;;;;;;;;4963918;28;20394;-80
2024/03/11 04:48:14;;;;;;;20.00;14.15;;;;;;;;;;4978999;28;20081;-79
2024/03/11 04:50:41;;;;;;;15.13;11.60;;;;;;;;;;4961130;28;20501;-80
2024/03/11 04:53:10;;;;;;;13.73;9.73;;;;;;;;;;4961947;28;20525;-79
2024/03/11 04:55:37;;;;;;;10.45;8.25;;;;;;;;;;4962553;28;20051;-80
2024/03/11 04:58:04;;;;;;;8.68;6.50;;;;;;;;;;4975474;28;20117;-78
2024/03/11 05:00:31;;;;;;;6.68;4.25;;;;;;;;;;4998523;28;20484;-80
2024/03/11 05:02:59;;;;;;;4.20;3.40;;;;;;;;;;4966625;28;20087;-82
2024/03/11 05:05:26;;;;;;;3.22;2.47;;;;;;;;;;4989575;28;20082;-81
2024/03/11 05:07:53;;;;;;;4.35;2.85;;;;;;;;;;4967572;28;20062;-82
2024/03/11 05:10:21;;;;;;;4.35;2.22;;;;;;;;;;4966963;28;20067;-81
2024/03/11 05:12:49;;;;;;;3.17;1.95;;;;;;;;;;4966381;28;20056;-82
2024/03/11 05:15:19;;;;;;;3.58;2.22;;;;;;;;;;4963952;28;20522;-82
2024/03/11 05:17:46;;;;;;;2.25;1.50;;;;;;;;;;4961528;28;20051;-80
2024/03/11 05:20:16;;;;;;;2.30;1.45;;;;;;;;;;4975649;28;20058;-81
2024/03/11 05:22:45;;;;;;;3.15;1.83;;;;;;;;;;4960135;28;20058;-82
2024/03/11 05:25:14;;;;;;;4.40;1.50;;;;;;;;;;4981828;28;20090;-82
2024/03/11 05:27:46;;;;;;;2.45;1.42;;;;;;;;;;4981981;28;20050;-83
2024/03/11 05:30:14;;;;;;;1.20;0.90;;;;;;;;;;4975419;28;20105;-82
2024/03/11 05:32:40;;;;;;;2.15;0.98;;;;;;;;;;4962549;28;20303;-82
2024/03/11 05:35:07;;;;;;;1.88;1.13;;;;;;;;;;4980400;28;20066;-83
2024/03/11 05:37:34;;;;;;;1.67;1.30;;;;;;;;;;4980093;28;20580;-81
2024/03/11 05:40:05;;;;;;;1.05;0.93;;;;;;;;;;4981267;28;20055;-83
2024/03/11 05:42:33;;;;;;;1.83;1.30;;;;;;;;;;4968333;28;20057;-83
2024/03/11 05:45:00;;;;;;;3.67;1.50;;;;;;;;;;4976730;28;20054;-83
2024/03/11 05:47:26;;;;;;;2.15;1.25;;;;;;;;;;4961200;28;20544;-82
2024/03/11 05:49:53;;;;;;;3.28;1.63;;;;;;;;;;4978298;28;20057;-83
2024/03/11 05:52:21;;;;;;;1.73;1.27;;;;;;;;;;4963035;28;20117;-82
2024/03/11 05:54:50;;;;;;;2.28;1.38;;;;;;;;;;4959564;28;20047;-82
2024/03/11 05:57:26;;;;;;;2.47;1.52;;;;;;;;;;4962106;28;20120;-81
2024/03/11 05:59:53;;;;;;;2.03;1.40;;;;;;;;;;4962774;28;20093;-79
2024/03/11 06:02:23;;;;;;;1.52;1.10;;;;;;;;;;4959294;28;20117;-81
2024/03/11 06:04:49;;;;;;;2.85;1.70;;;;;;;;;;4978036;28;20055;-81
2024/03/11 06:07:17;;;;;;;1.35;1.00;;;;;;;;;;4975519;28;20051;-80
2024/03/11 06:09:43;;;;;;;1.30;0.95;;;;;;;;;;4974918;28;20085;-81
2024/03/11 06:12:10;;;;;;;1.80;0.93;;;;;;;;;;4960245;28;20075;-80
2024/03/11 06:14:37;;;;;;;2.42;1.10;;;;;;;;;;4979024;28;20074;-81
2024/03/11 06:17:06;;;;;;;1.25;0.80;;;;;;;;;;4962279;28;20114;-80
2024/03/11 06:19:33;;;;;;;1.80;1.25;;;;;;;;;;4978021;28;20138;-78
2024/03/11 06:22:00;;;;;;;3.42;1.17;;;;;;;;;;4980888;28;20494;-81
2024/03/11 06:24:28;;;;;;;0.80;0.77;;;;;;;;;;4978164;28;20055;-82
2024/03/11 06:26:56;;;;;;;1.90;0.93;;;;;;;;;;4975186;28;20082;-81
2024/03/11 06:29:26;;;;;;;1.10;1.00;;;;;;;;;;4973479;28;20131;-82
2024/03/11 06:31:53;;;;;;;1.27;0.93;;;;;;;;;;4995556;28;20334;-83
2024/03/11 06:34:21;;;;;;;0.98;0.85;;;;;;;;;;4953054;28;20481;-81
2024/03/11 06:36:48;;;;;;;3.05;1.35;;;;;;;;;;4975429;28;20054;-80
2024/03/11 06:39:15;;;;;;;2.50;1.02;;;;;;;;;;4977872;28;20058;-77
2024/03/11 06:41:43;;;;;;;1.45;0.93;;;;;;;;;;4980057;28;20047;-76
2024/03/11 06:44:10;;;;;;;1.98;1.70;;;;;;;;;;4967516;28;20078;-78
2024/03/11 06:46:46;;;;;;;1.38;1.00;;;;;;;;;;4972649;28;20722;-78
2024/03/11 06:49:13;;;;;;;1.83;1.25;;;;;;;;;;4970668;28;20082;-78
2024/03/11 06:51:40;;;;;;;1.35;1.00;;;;;;;;;;4950676;28;20110;-78
2024/03/11 06:54:07;;;;;;;2.17;1.48;;;;;;;;;;4976067;28;20524;-78
2024/03/11 06:56:33;;;;;;;1.92;1.00;;;;;;;;;;4971967;28;20054;-78
2024/03/11 06:59:00;;;;;;;2.50;1.50;;;;;;;;;;4970642;28;20497;-77
2024/03/11 07:01:27;;;;;;;1.10;1.00;;;;;;;;;;4954477;28;20055;-78
2024/03/11 07:03:55;;;;;;;0.88;0.70;;;;;;;;;;4955574;28;20062;-77
2024/03/11 07:06:22;;;;;;;2.30;1.00;;;;;;;;;;4955938;28;20061;-84
2024/03/11 07:08:50;;;;;;;1.98;1.02;;;;;;;;;;4972106;28;20533;-83
2024/03/11 07:11:16;;;;;;;2.67;0.95;;;;;;;;;;4973425;28;20062;-83
2024/03/11 07:13:43;;;;;;;0.80;0.80;;;;;;;;;;4955518;28;20059;-83
2024/03/11 07:16:12;;;;;;;1.20;1.10;;;;;;;;;;4956671;28;20044;-83
2024/03/11 07:18:41;;;;;;;1.27;0.93;;;;;;;;;;4970772;28;20053;-80
2024/03/11 07:21:09;;;;;;;3.53;1.10;;;;;;;;;;4955428;28;20138;-83
2024/03/11 07:23:36;;;;;;;4.75;1.00;;;;;;;;;;4973798;28;20055;-82
2024/03/11 07:26:03;;;;;;;1.17;0.80;;;;;;;;;;4959201;28;20141;-84
2024/03/11 07:28:30;;;;;;;2.03;0.70;;;;;;;;;;4957855;28;20074;-84
2024/03/11 07:30:56;;;;;;;1.65;1.15;;;;;;;;;;4957811;28;20086;-84
2024/03/11 07:33:23;;;;;;;1.00;0.90;;;;;;;;;;4970256;28;20154;-81
2024/03/11 07:35:50;;;;;;;0.80;0.70;;;;;;;;;;4979290;28;20058;-87
2024/03/11 07:38:17;;;;;;;2.85;0.80;;;;;;;;;;4964317;28;20129;-87
2024/03/11 07:40:45;;;;;;;1.58;0.88;;;;;;;;;;4968156;28;20058;-83
2024/03/11 07:43:12;;;;;;;0.88;0.65;;;;;;;;;;4988258;28;20050;-86
2024/03/11 07:45:39;;;;;;;1.88;1.02;;;;;;;;;;4975075;28;20484;-85
2024/03/11 07:48:06;;;;;;;0.75;0.70;;;;;;;;;;4958610;28;20043;-85
2024/03/11 07:50:33;;;;;;;1.05;0.65;;;;;;;;;;4956744;28;20055;-86
2024/03/11 07:52:59;;;;;;;1.15;0.82;;;;;;;;;;4971945;28;20527;-86
2024/03/11 07:55:28;;;;;;;0.88;0.65;;;;;;;;;;4989101;28;20055;-86
2024/03/11 07:57:55;;;;;;;0.90;0.77;;;;;;;;;;4957552;28;20058;-80
2024/03/11 08:00:29;;;;;;;2.25;0.70;;;;;;;;;;4973548;28;20055;-85
2024/03/11 08:02:57;;;;;;;0.90;0.70;;;;;;;;;;4957963;28;20519;-77
2024/03/11 08:05:24;;;;;;;1.13;0.50;;;;;;;;;;4970559;28;20062;-77
2024/03/11 08:07:51;;;;;;;1.00;0.70;;;;;;;;;;4957577;28;20081;-76
2024/03/11 08:10:18;;;;;;;1.67;0.90;;;;;;;;;;4955772;28;20064;-73
2024/03/11 08:12:47;;;;;;;1.80;1.10;;;;;;;;;;4973303;28;20059;-78
2024/03/11 08:15:14;;;;;;;4.43;2.38;;;;;;;;;;4956388;28;20109;-76
2024/03/11 08:17:43;;;;;;;4.00;1.45;;;;;;;;;;4979397;28;20410;-86
2024/03/11 08:20:10;;;;;;;2.35;0.90;;;;;;;;;;4955208;28;20086;-76
2024/03/11 08:22:37;;;;;;;1.50;0.60;;;;;;;;;;4972245;28;20046;-76
2024/03/11 08:25:07;;;;;;;0.95;0.73;;;;;;;;;;4975563;28;20137;-73
2024/03/11 08:27:33;;;;;;;4.35;1.23;;;;;;;;;;4955379;28;20145;-74
2024/03/11 08:30:00;;;;;;;2.65;1.00;;;;;;;;;;4975121;28;20235;-77
2024/03/11 08:32:27;;;;;;;1.50;0.88;;;;;;;;;;4989479;28;20082;-76
2024/03/11 08:34:57;;;;;;;0.82;0.63;;;;;;;;;;4973694;28;20046;-76
2024/03/11 08:37:23;;;;;;;1.75;0.70;;;;;;;;;;4973258;28;20051;-76
2024/03/11 08:39:51;;;;;;;2.58;0.70;;;;;;;;;;4979000;28;20082;-76
2024/03/11 08:42:20;;;;;;;1.73;0.50;;;;;;;;;;4978898;28;20122;-77
2024/03/11 08:44:50;;;;;;;2.90;0.70;;;;;;;;;;4975167;28;20057;-76
2024/03/11 08:47:17;;;;;;;1.10;0.52;;;;;;;;;;4975617;28;20085;-76
2024/03/11 08:49:47;;;;;;;0.57;0.50;;;;;;;;;;4957840;28;20063;-76
2024/03/11 08:52:14;;;;;;;1.15;0.60;;;;;;;;;;4972352;28;20055;-76
2024/03/11 08:54:41;;;;;;;0.60;0.52;;;;;;;;;;4974569;28;20055;-76
2024/03/11 08:57:12;;;;;;;0.73;0.45;;;;;;;;;;4971765;28;20149;-76
2024/03/11 08:59:39;;;;;;;1.00;0.60;;;;;;;;;;4973303;28;20098;-77
2024/03/11 09:02:09;;;;;;;1.20;0.60;;;;;;;;;;4967895;28;20046;-78
2024/03/11 09:04:36;;;;;;;0.55;0.43;;;;;;;;;;4968783;28;20078;-77
2024/03/11 09:07:04;;;;;;;2.80;0.80;;;;;;;;;;4965040;28;20099;-76
2024/03/11 09:09:31;;;;;;;2.33;0.73;;;;;;;;;;4953797;28;20054;-76
2024/03/11 09:11:58;;;;;;;1.10;0.60;;;;;;;;;;4966308;28;20050;-76
2024/03/11 09:14:27;;;;;;;0.88;0.50;;;;;;;;;;4983994;28;20114;-76
2024/03/11 09:16:54;;;;;;;0.60;0.50;;;;;;;;;;4966928;28;20435;-76
2024/03/11 09:19:23;;;;;;;1.50;0.40;;;;;;;;;;4965631;28;20058;-75
2024/03/11 09:21:50;;;;;;;0.80;0.47;;;;;;;;;;4967958;28;20127;-76
2024/03/11 09:24:17;;;;;;;0.82;0.50;;;;;;;;;;4967533;28;20109;-76
2024/03/11 09:26:44;;;;;;;0.80;0.40;;;;;;;;;;4967673;28;20055;-76
2024/03/11 09:29:11;;;;;;;0.77;0.60;;;;;;;;;;4968826;28;20051;-76
2024/03/11 09:31:39;;;;;;;1.05;0.50;;;;;;;;;;4968926;28;20061;-76
2024/03/11 09:34:07;;;;;;;0.73;0.60;;;;;;;;;;4968080;28;20042;-76
2024/03/11 09:36:38;;;;;;;1.45;0.40;;;;;;;;;;4982656;28;20047;-76
2024/03/11 09:39:06;;;;;;;1.30;0.60;;;;;;;;;;4983220;28;20117;-76
2024/03/11 09:41:38;;;;;;;1.33;0.50;;;;;;;;;;4966804;28;20046;-76
2024/03/11 09:44:06;;;;;;;2.08;0.75;;;;;;;;;;4969537;28;20073;-76
2024/03/11 09:46:33;;;;;;;0.95;0.30;;;;;;;;;;4972281;28;20057;-76
2024/03/11 09:49:00;;;;;;;1.40;0.60;;;;;;;;;;4973684;28;20054;-76
2024/03/11 09:51:29;;;;;;;0.52;0.52;;;;;;;;;;4971301;28;20042;-77
2024/03/11 09:53:58;;;;;;;1.35;0.40;;;;;;;;;;4989327;28;20058;-76
2024/03/11 09:56:25;;;;;;;4.15;0.50;;;;;;;;;;4983656;28;20577;-76
2024/03/11 09:58:55;;;;;;;0.60;0.40;;;;;;;;;;4985145;28;20482;-77
2024/03/11 10:01:30;;;;;;;0.25;0.20;;;;;;;;;;4965638;28;20098;-74
2024/03/11 10:03:58;;;;;;;0.30;0.30;;;;;;;;;;4971541;28;20058;-74
2024/03/11 10:06:27;;;;;;;0.60;0.30;;;;;;;;;;4964481;28;20795;-74
2024/03/11 10:08:53;;;;;;;0.20;0.20;;;;;;;;;;4968628;28;20058;-74
2024/03/11 10:11:20;;;;;;;0.80;0.50;;;;;;;;;;4970274;28;20051;-73
2024/03/11 10:13:52;;;;;;;0.63;0.43;;;;;;;;;;4970659;28;20505;-74
2024/03/11 10:16:21;;;;;;;0.35;0.30;;;;;;;;;;4949033;28;20051;-73
2024/03/11 10:18:52;;;;;;;0.30;0.30;;;;;;;;;;4953801;28;20054;-74
2024/03/11 10:21:19;;;;;;;0.55;0.40;;;;;;;;;;4971971;28;20047;-73
2024/03/11 10:23:48;;;;;;;0.45;0.30;;;;;;;;;;4971742;28;20059;-74
2024/03/11 10:26:18;;;;;;;0.32;0.30;;;;;;;;;;4954859;28;20142;-73
2024/03/11 10:28:47;;;;;;;1.48;0.63;;;;;;;;;;4971298;28;20501;-73
2024/03/11 10:31:21;;;;;;;0.60;0.30;;;;;;;;;;4971314;28;20058;-74
2024/03/11 10:33:50;;;;;;;0.68;0.40;;;;;;;;;;4955883;28;20059;-74
2024/03/11 10:36:19;;;;;;;0.70;0.30;;;;;;;;;;4965612;28;20082;-73
2024/03/11 10:38:46;;;;;;;0.85;0.40;;;;;;;;;;4970473;28;20050;-73
2024/03/11 10:41:20;;;;;;;0.73;0.32;;;;;;;;;;4954935;28;20055;-73
2024/03/11 10:43:53;;;;;;;1.83;0.50;;;;;;;;;;4970773;28;20047;-73
2024/03/11 10:46:22;;;;;;;1.80;0.73;;;;;;;;;;4955290;28;20109;-73
2024/03/11 10:48:51;;;;;;;0.82;0.60;;;;;;;;;;4954490;28;20082;-72
2024/03/11 10:51:21;;;;;;;0.85;0.63;;;;;;;;;;4978914;28;20163;-73
2024/03/11 10:53:51;;;;;;;4.75;0.63;;;;;;;;;;4970415;28;20649;-73
2024/03/11 10:56:24;;;;;;;1.98;0.52;;;;;;;;;;4966050;28;20146;-72
2024/03/11 10:58:54;;;;;;;0.47;0.28;;;;;;;;;;4969955;28;20416;-73
2024/03/11 11:01:40;;;;;;;2.17;0.57;;;;;;;;;;4970179;28;20047;-73
2024/03/11 11:04:19;;;;;;;1.75;0.30;;;;;;;;;;4970603;28;20059;-73
2024/03/11 11:06:46;;;;;;;0.65;0.25;;;;;;;;;;4969895;28;20055;-74
2024/03/11 11:09:13;;;;;;;0.60;0.40;;;;;;;;;;4978275;28;20090;-73
2024/03/11 11:11:41;;;;;;;1.63;0.57;;;;;;;;;;4954795;28;20430;-73
2024/03/11 11:14:11;;;;;;;1.95;0.43;;;;;;;;;;4973244;28;20434;-73
2024/03/11 11:16:38;;;;;;;0.40;0.28;;;;;;;;;;4974364;28;20405;-73
2024/03/11 11:19:05;;;;;;;0.30;0.20;;;;;;;;;;4974482;28;20058;-73
2024/03/11 11:21:32;;;;;;;1.00;0.40;;;;;;;;;;4974325;28;20222;-73
2024/03/11 11:24:17;;;;;;;0.95;0.32;;;;;;;;;;4974036;28;20051;-73
2024/03/11 11:26:44;;;;;;;1.75;0.22;;;;;;;;;;4981795;28;20086;-74
2024/03/11 11:29:11;;;;;;;1.77;0.30;;;;;;;;;;4958456;28;20410;-73
2024/03/11 11:31:38;;;;;;;2.83;0.40;;;;;;;;;;4973967;28;20452;-74
2024/03/11 11:34:07;;;;;;;0.40;0.40;;;;;;;;;;4957409;28;20058;-74
2024/03/11 11:36:37;;;;;;;1.23;0.30;;;;;;;;;;4973285;28;20054;-73
2024/03/11 11:39:27;;;;;;;0.20;0.20;;;;;;;;;;4972752;28;20078;-73
2024/03/11 11:41:57;;;;;;;0.30;0.30;;;;;;;;;;4972972;28;20461;-73
2024/03/11 11:44:24;;;;;;;0.47;0.47;;;;;;;;;;4957884;28;20055;-73
2024/03/11 11:46:51;;;;;;;0.77;0.30;;;;;;;;;;4971861;28;20406;-73
2024/03/11 11:49:19;;;;;;;0.82;0.40;;;;;;;;;;4973100;28;20063;-74
2024/03/11 11:51:46;;;;;;;1.20;0.38;;;;;;;;;;4972706;28;20452;-73
2024/03/11 11:54:25;;;;;;;0.70;0.45;;;;;;;;;;4973226;28;20051;-74
2024/03/11 11:57:06;;;;;;;0.75;0.30;;;;;;;;;;4972769;28;20055;-74
2024/03/11 11:59:33;;;;;;;2.58;1.60;;;;;;;;;;4973019;28;20082;-74
2024/03/11 12:02:00;;;;;;;0.60;0.45;;;;;;;;;;4957305;28;20490;-73
2024/03/11 12:04:28;;;;;;;0.50;0.50;;;;;;;;;;4974120;28;20421;-74
2024/03/11 12:06:55;;;;;;;1.17;0.30;;;;;;;;;;4972492;28;20059;-73
2024/03/11 12:09:23;;;;;;;0.40;0.22;;;;;;;;;;4973124;28;20058;-73
2024/03/11 12:11:54;;;;;;;0.50;0.30;;;;;;;;;;4974108;28;20065;-74
2024/03/11 12:14:22;;;;;;;0.50;0.20;;;;;;;;;;4972777;28;20153;-73
2024/03/11 12:16:49;;;;;;;3.53;0.30;;;;;;;;;;4972134;28;20500;-75
2024/03/11 12:19:16;;;;;;;0.43;0.40;;;;;;;;;;4973109;28;20081;-74
2024/03/11 12:21:43;;;;;;;0.55;0.40;;;;;;;;;;4972500;28;20050;-73
2024/03/11 12:24:14;;;;;;;0.20;0.15;;;;;;;;;;4955967;28;20057;-73
2024/03/11 12:26:45;;;;;;;0.75;0.28;;;;;;;;;;4956449;28;20047;-74
2024/03/11 12:29:13;;;;;;;1.60;0.20;;;;;;;;;;4957009;28;20062;-74
2024/03/11 12:31:41;;;;;;;2.10;0.40;;;;;;;;;;4956506;28;20058;-74
2024/03/11 12:34:08;;;;;;;0.85;0.38;;;;;;;;;;4972240;28;20470;-74
2024/03/11 12:36:39;;;;;;;0.57;0.32;;;;;;;;;;4957572;28;20156;-74
2024/03/11 12:39:33;;;;;;;3.85;0.40;;;;;;;;;;4956221;28;20141;-74
2024/03/11 12:42:00;;;;;;;0.47;0.40;;;;;;;;;;4960250;28;20051;-74
2024/03/11 12:44:27;;;;;;;0.50;0.50;;;;;;;;;;4972079;28;20497;-74
2024/03/11 12:46:54;;;;;;;0.45;0.25;;;;;;;;;;4979733;28;20481;-74
2024/03/11 12:49:22;;;;;;;0.50;0.50;;;;;;;;;;4957055;28;20117;-74
2024/03/11 12:51:59;;;;;;;2.17;0.20;;;;;;;;;;4955856;28;20406;-74
2024/03/11 12:54:28;;;;;;;1.17;0.68;;;;;;;;;;4956824;28;20047;-74
2024/03/11 12:57:10;;;;;;;0.28;0.28;;;;;;;;;;4965644;28;20138;-74
2024/03/11 12:59:41;;;;;;;0.45;0.30;;;;;;;;;;4973958;28;20054;-75
2024/03/11 13:02:12;;;;;;;0.35;0.35;;;;;;;;;;4957212;28;20105;-75
2024/03/11 13:04:39;;;;;;;0.32;0.30;;;;;;;;;;4957589;28;20051;-74
2024/03/11 13:07:06;;;;;;;0.95;0.20;;;;;;;;;;4965542;28;20584;-75
2024/03/11 13:09:33;;;;;;;1.30;0.50;;;;;;;;;;4973215;28;20055;-75
2024/03/11 13:12:01;;;;;;;2.00;0.40;;;;;;;;;;4973163;28;20065;-75
2024/03/11 13:14:28;;;;;;;0.93;0.50;;;;;;;;;;4973225;28;20054;-74
2024/03/11 13:16:55;;;;;;;0.40;0.30;;;;;;;;;;4966017;28;20117;-73
2024/03/11 13:19:25;;;;;;;0.40;0.38;;;;;;;;;;4973281;28;20567;-74
2024/03/11 13:21:55;;;;;;;0.88;0.38;;;;;;;;;;4973517;28;20074;-75
2024/03/11 13:24:32;;;;;;;1.30;0.30;;;;;;;;;;4957602;28;20058;-75
2024/03/11 13:26:59;;;;;;;0.50;0.30;;;;;;;;;;4951158;28;20058;-75
2024/03/11 13:29:26;;;;;;;1.55;0.40;;;;;;;;;;4973155;28;20054;-75
2024/03/11 13:31:53;;;;;;;1.25;0.30;;;;;;;;;;4973559;28;20141;-74
2024/03/11 13:34:21;;;;;;;0.40;0.40;;;;;;;;;;4973066;28;20047;-75
2024/03/11 13:36:49;;;;;;;0.30;0.30;;;;;;;;;;4965398;28;20058;-75
2024/03/11 13:39:15;;;;;;;0.55;0.30;;;;;;;;;;4972701;28;20078;-75
2024/03/11 13:41:47;;;;;;;0.38;0.22;;;;;;;;;;4972938;28;20053;-74
2024/03/11 13:44:14;;;;;;;0.38;0.20;;;;;;;;;;4956998;28;20065;-75
2024/03/11 13:46:46;;;;;;;0.35;0.30;;;;;;;;;;4950837;28;20121;-75
2024/03/11 13:49:13;;;;;;;2.03;0.40;;;;;;;;;;4972840;28;20058;-74
2024/03/11 13:51:40;;;;;;;0.80;0.30;;;;;;;;;;4956630;28;20300;-75
2024/03/11 13:54:07;;;;;;;1.33;0.30;;;;;;;;;;4956614;28;20243;-74
2024/03/11 13:56:33;;;;;;;0.95;0.40;;;;;;;;;;4965989;28;20130;-75
2024/03/11 13:59:00;;;;;;;0.35;0.20;;;;;;;;;;4972507;28;20461;-75
2024/03/11 14:01:27;;;;;;;3.47;0.95;;;;;;;;;;4972262;28;20047;-75
2024/03/11 14:03:54;;;;;;;5.78;0.70;;;;;;;;;;4972221;28;20129;-75
2024/03/11 14:06:20;;;;;;;0.60;0.47;;;;;;;;;;4971941;28;20050;-76
2024/03/11 14:08:47;;;;;;;2.53;1.30;;;;;;;;;;4956090;28;20512;-75
2024/03/11 14:11:14;;;;;;;1.77;1.17;;;;;;;;;;4971888;28;20059;-75
2024/03/11 14:13:46;;;;;;;3.50;1.48;;;;;;;;;;4972889;28;20059;-75
2024/03/11 14:16:13;;;;;;;2.25;0.98;;;;;;;;;;4966648;28;20082;-75
2024/03/11 14:18:40;;;;;;;1.48;0.60;;;;;;;;;;4972175;28;20424;-74
2024/03/11 14:21:08;;;;;;;0.88;0.65;;;;;;;;;;4971768;28;20047;-75
2024/03/11 14:23:38;;;;;;;1.40;0.88;;;;;;;;;;4972750;28;20055;-75
2024/03/11 14:26:11;;;;;;;1.75;0.50;;;;;;;;;;4957328;28;20063;-75
2024/03/11 14:28:42;;;;;;;1.48;0.50;;;;;;;;;;4972373;28;20085;-75
2024/03/11 14:31:12;;;;;;;1.40;0.40;;;;;;;;;;4956740;28;20062;-75
2024/03/11 14:33:43;;;;;;;0.95;0.40;;;;;;;;;;4980935;28;20085;-75
2024/03/11 14:36:10;;;;;;;0.50;0.30;;;;;;;;;;4966462;28;20113;-74
2024/03/11 14:38:40;;;;;;;2.08;0.63;;;;;;;;;;4972416;28;20505;-75
2024/03/11 14:41:11;;;;;;;0.35;0.35;;;;;;;;;;4972765;28;20078;-76
2024/03/11 14:43:39;;;;;;;0.47;0.40;;;;;;;;;;4975136;28;20057;-75
2024/03/11 14:46:06;;;;;;;0.82;0.47;;;;;;;;;;4976868;28;20098;-74
2024/03/11 14:48:33;;;;;;;0.30;0.30;;;;;;;;;;4975517;28;20406;-75
2024/03/11 14:51:02;;;;;;;0.40;0.40;;;;;;;;;;4976982;28;20058;-76
2024/03/11 14:53:30;;;;;;;0.55;0.40;;;;;;;;;;4978488;28;20137;-73